FAWB/PRY METAR and TAF weather

Enter ICAO airport designator
Station Type Date Time Source
FAWB METAR 2024/02/26 18:00 UTC NOAA

FAWB 261800Z AUTO 07004KT //// // ////// 20/15 Q1018


Station Type Date Time Source
FAWB Decoded METAR 2024/02/26 18:00 UTC NOAA

Wonderboom / Pretoria, South Africa (FAWB) 25-39S 028-13E
Feb 26, 2024 - 01:00 PM EST / 2024.02.26 1800 UTC
Wind: from the ENE (070 degrees) at 5 MPH (4 KT):0
Temperature: 68 F (20 C)
Dew Point: 59 F (15 C)
Relative Humidity: 72%
Pressure (altimeter): 30.06 in. Hg (1018 hPa)
ob: FAWB 261800Z AUTO 07004KT //// // ////// 20/15 Q1018
cycle: 18

Station Type Date Time Source
FAWB TAF 2021/05/05 07:00 UTC NOAA